createdAt,value
2022-09-12T00:00:00.120Z,11.4
2022-09-12T00:05:00.120Z,11.4
2022-09-12T00:10:00.124Z,11.8
2022-09-12T00:15:00.104Z,11.8
2022-09-12T00:20:00.152Z,8.8
2022-09-12T00:25:00.138Z,8.8
2022-09-12T00:30:00.127Z,10.5
2022-09-12T00:35:00.120Z,10.5
2022-09-12T00:40:00.171Z,11.8
2022-09-12T00:45:00.125Z,11.8
2022-09-12T00:50:00.112Z,12.2
2022-09-12T00:55:00.136Z,12.2
2022-09-12T01:00:00.118Z,11.1
2022-09-12T01:05:00.143Z,11.1
2022-09-12T01:10:00.102Z,10.2
2022-09-12T01:15:00.126Z,10.2
2022-09-12T01:20:00.134Z,10.4
2022-09-12T01:25:00.180Z,10.4
2022-09-12T01:30:00.112Z,9.7
2022-09-12T01:35:00.139Z,9.7
2022-09-12T01:40:00.219Z,10.5
2022-09-12T01:45:00.130Z,10.5
2022-09-12T01:50:00.132Z,13.1
2022-09-12T01:55:00.142Z,13.1
2022-09-12T02:00:00.109Z,10.8
2022-09-12T02:05:00.122Z,10.8
2022-09-12T02:10:00.140Z,13.9
2022-09-12T02:15:00.109Z,13.9
2022-09-12T02:20:00.113Z,17.6
2022-09-12T02:25:00.117Z,17.6
2022-09-12T02:30:00.136Z,18.8
2022-09-12T02:35:00.107Z,18.8
2022-09-12T02:40:00.230Z,16.1
2022-09-12T02:45:00.136Z,16.1
2022-09-12T02:50:00.117Z,18.5
2022-09-12T02:55:00.112Z,18.5
2022-09-12T03:00:00.116Z,15.4
2022-09-12T03:05:00.101Z,15.4
2022-09-12T03:10:00.109Z,20.3
2022-09-12T03:15:00.121Z,20.3
2022-09-12T03:20:00.122Z,20.1
2022-09-12T03:25:00.164Z,20.1
2022-09-12T03:30:00.132Z,20.1
2022-09-12T03:35:00.151Z,20.1
2022-09-12T03:40:00.168Z,15.8
2022-09-12T03:45:00.146Z,15.8
2022-09-12T03:50:00.162Z,15.1
2022-09-12T03:55:00.121Z,15.1
2022-09-12T04:00:00.111Z,16.4
2022-09-12T04:05:00.131Z,16.4
2022-09-12T04:10:00.158Z,17.6
2022-09-12T04:15:00.121Z,17.6
2022-09-12T04:20:00.140Z,15.7
2022-09-12T04:25:00.120Z,15.7
2022-09-12T04:30:00.129Z,14.9
2022-09-12T04:35:00.137Z,14.9
2022-09-12T04:40:00.224Z,14.9
2022-09-12T04:45:00.120Z,14.9
2022-09-12T04:50:00.124Z,15.1
2022-09-12T04:55:00.117Z,15.1
2022-09-12T05:00:02.790Z,13.5
2022-09-12T05:05:00.152Z,13.5
2022-09-12T05:10:00.126Z,25.7
2022-09-12T05:15:00.118Z,25.7
2022-09-12T05:20:00.133Z,28.8
2022-09-12T05:25:00.122Z,28.8
2022-09-12T05:30:00.118Z,33.2
2022-09-12T05:35:00.134Z,33.2
2022-09-12T05:40:00.197Z,72.6
2022-09-12T05:45:00.120Z,72.6
2022-09-12T05:50:00.154Z,53.5
2022-09-12T05:55:00.133Z,53.5
2022-09-12T06:00:00.100Z,24.1
2022-09-12T06:05:00.129Z,24.1
2022-09-12T06:10:00.108Z,63.5
2022-09-12T06:15:00.137Z,63.5
2022-09-12T06:20:00.125Z,129.8
2022-09-12T06:25:00.105Z,129.8
2022-09-12T06:30:00.096Z,87.1
2022-09-12T06:35:00.128Z,87.1
2022-09-12T06:40:00.212Z,89.8
2022-09-12T06:45:00.131Z,89.8
2022-09-12T06:50:00.143Z,127.4
2022-09-12T06:55:00.107Z,127.4
2022-09-12T07:00:00.105Z,33.8
2022-09-12T07:05:00.120Z,33.8
2022-09-12T07:10:00.111Z,47.1
2022-09-12T07:15:00.126Z,47.1
2022-09-12T07:20:00.228Z,58.1
2022-09-12T07:25:00.116Z,58.1
2022-09-12T07:30:00.098Z,39.6
2022-09-12T07:35:00.127Z,39.6
2022-09-12T07:40:00.278Z,20.2
2022-09-12T07:45:00.111Z,20.2
2022-09-12T07:50:00.129Z,18.1
2022-09-12T07:55:00.162Z,18.1
2022-09-12T08:00:00.107Z,25.4
2022-09-12T08:05:00.123Z,25.4
2022-09-12T08:10:00.135Z,18.6
2022-09-12T08:15:00.122Z,18.6
2022-09-12T08:20:00.125Z,19
2022-09-12T08:25:00.118Z,19
2022-09-12T08:30:00.103Z,28.8
2022-09-12T08:35:00.124Z,28.8
2022-09-12T08:40:00.224Z,31.5
2022-09-12T08:45:00.133Z,31.5
2022-09-12T08:50:00.117Z,23.4
2022-09-12T08:55:00.129Z,23.4
2022-09-12T09:00:00.115Z,23.3
2022-09-12T09:05:00.116Z,23.3
2022-09-12T09:10:00.149Z,20.6
2022-09-12T09:15:00.120Z,20.6
2022-09-12T09:20:00.108Z,24.5
2022-09-12T09:25:00.125Z,24.5
2022-09-12T09:30:00.138Z,22.4
2022-09-12T09:35:00.123Z,22.4
2022-09-12T09:40:00.167Z,23.6
2022-09-12T09:45:00.143Z,23.6
2022-09-12T09:50:00.107Z,20.6
2022-09-12T09:55:00.127Z,20.6
2022-09-12T10:00:00.130Z,19.4
2022-09-12T10:15:00.686Z,18.6
2022-09-12T10:20:17.801Z,18.8
2022-09-12T10:25:00.132Z,18.8
2022-09-12T10:30:00.165Z,17.6
2022-09-12T10:35:00.128Z,17.6
2022-09-12T10:40:00.210Z,19
2022-09-12T10:45:00.131Z,19
2022-09-12T10:50:00.165Z,21.3
2022-09-12T10:55:00.126Z,21.3
2022-09-12T11:00:00.161Z,21.3
2022-09-12T11:05:00.134Z,21.3
2022-09-12T11:10:00.153Z,19.8
2022-09-12T11:15:00.142Z,19.8
2022-09-12T11:20:00.142Z,20.7
2022-09-12T11:25:00.132Z,20.7
2022-09-12T11:30:00.125Z,18.3
2022-09-12T11:35:00.125Z,18.3
2022-09-12T11:40:00.193Z,16.8
2022-09-12T11:45:00.124Z,16.8
2022-09-12T11:50:00.112Z,18.5
2022-09-12T11:55:00.107Z,18.5
2022-09-12T12:00:00.122Z,17.9
2022-09-12T12:05:00.104Z,17.9
2022-09-12T12:10:00.114Z,17.8
2022-09-12T12:15:00.144Z,17.8
2022-09-12T12:20:04.923Z,17.5
2022-09-12T12:25:00.122Z,17.5
2022-09-12T12:30:00.127Z,15.3
2022-09-12T12:35:00.122Z,15.3
2022-09-12T12:40:00.219Z,14.8
2022-09-12T12:45:00.142Z,14.8
2022-09-12T12:50:00.135Z,16.9
2022-09-12T12:55:00.127Z,16.9
2022-09-12T13:00:00.108Z,15.3
2022-09-12T13:05:00.117Z,15.3
2022-09-12T13:10:00.114Z,12.9
2022-09-12T13:15:00.112Z,12.9
2022-09-12T13:20:17.169Z,14.3
2022-09-12T13:25:00.136Z,14.3
2022-09-12T13:30:00.181Z,15.3
2022-09-12T13:35:00.115Z,15.3
2022-09-12T13:40:00.194Z,13.9
2022-09-12T13:45:00.103Z,13.9
2022-09-12T13:50:00.099Z,13.1
2022-09-12T13:55:00.127Z,13.1
2022-09-12T14:00:00.105Z,13.4
2022-09-12T14:05:00.115Z,13.4
2022-09-12T14:10:00.122Z,11.2
2022-09-12T14:15:00.117Z,11.2
2022-09-12T14:20:00.113Z,10.3
2022-09-12T14:25:00.138Z,10.3
2022-09-12T14:30:00.106Z,10.5
2022-09-12T14:35:00.114Z,10.5
2022-09-12T14:40:00.189Z,10
2022-09-12T14:45:00.116Z,10
2022-09-12T14:50:00.133Z,14.1
2022-09-12T14:55:00.121Z,14.1
2022-09-12T15:00:00.129Z,9.3
2022-09-12T15:05:00.103Z,9.3
2022-09-12T15:10:00.129Z,9.4
2022-09-12T15:15:00.112Z,9.4
2022-09-12T15:20:00.125Z,12.2
2022-09-12T15:25:00.130Z,12.2
2022-09-12T15:30:00.237Z,9.8
2022-09-12T15:35:00.123Z,9.8
2022-09-12T15:40:00.230Z,11
2022-09-12T15:45:02.486Z,11
2022-09-12T15:50:00.230Z,8.4
2022-09-12T15:55:00.125Z,8.4
2022-09-12T16:00:00.112Z,8.3
2022-09-12T16:05:00.127Z,8.3
2022-09-12T16:10:00.169Z,9
2022-09-12T16:15:00.112Z,9
2022-09-12T16:20:00.118Z,12.9
2022-09-12T16:25:00.134Z,12.9
2022-09-12T16:30:00.116Z,11.8
2022-09-12T16:35:00.172Z,11.8
2022-09-12T16:40:00.230Z,12.2
2022-09-12T16:45:00.127Z,12.2
2022-09-12T16:50:00.138Z,10.6
2022-09-12T16:55:00.131Z,10.6
2022-09-12T17:00:00.144Z,10.3
2022-09-12T17:05:00.129Z,10.3
2022-09-12T17:10:00.136Z,9.4
2022-09-12T17:15:00.122Z,9.4
2022-09-12T17:20:00.131Z,11.6
2022-09-12T17:25:00.133Z,11.6
2022-09-12T17:30:00.109Z,10.4
2022-09-12T17:35:00.116Z,10.4
2022-09-12T17:40:00.212Z,11.7
2022-09-12T17:45:00.110Z,11.7
2022-09-12T17:50:14.762Z,9.7
2022-09-12T17:55:00.116Z,9.7
2022-09-12T18:00:00.135Z,10
2022-09-12T18:05:00.118Z,10
2022-09-12T18:10:00.143Z,11.1
2022-09-12T18:15:00.112Z,11.1
2022-09-12T18:20:00.116Z,14.3
2022-09-12T18:25:00.273Z,14.3
2022-09-12T18:30:19.894Z,11.9
2022-09-12T18:35:00.120Z,11.9
2022-09-12T18:40:00.251Z,10.3
2022-09-12T18:45:00.123Z,10.3
2022-09-12T18:50:00.118Z,10.4
2022-09-12T18:55:00.129Z,10.4
2022-09-12T19:00:00.133Z,12.3
2022-09-12T19:05:00.130Z,12.3
2022-09-12T19:10:00.125Z,11.5
2022-09-12T19:15:00.110Z,11.5
2022-09-12T19:20:00.104Z,11.5
2022-09-12T19:25:00.133Z,11.5
2022-09-12T19:30:00.328Z,13.6
2022-09-12T19:35:00.114Z,13.6
2022-09-12T19:40:00.159Z,10
2022-09-12T19:45:00.117Z,10
2022-09-12T19:50:00.131Z,11.7
2022-09-12T19:55:00.119Z,11.7
2022-09-12T20:00:00.099Z,12
2022-09-12T20:05:00.103Z,12
2022-09-12T20:10:00.102Z,13.1
2022-09-12T20:15:00.093Z,13.1
2022-09-12T20:20:00.115Z,13.5
2022-09-12T20:25:00.127Z,13.5
2022-09-12T20:30:00.099Z,11.1
2022-09-12T20:35:00.107Z,11.1
2022-09-12T20:40:00.196Z,13.8
2022-09-12T20:45:00.117Z,13.8
2022-09-12T20:50:00.111Z,15.4
2022-09-12T20:55:00.118Z,15.4
2022-09-12T21:00:00.113Z,13
2022-09-12T21:05:00.117Z,13
2022-09-12T21:10:00.115Z,14.7
2022-09-12T21:15:00.116Z,14.7
2022-09-12T21:20:00.117Z,12
2022-09-12T21:25:00.127Z,12
2022-09-12T21:30:00.102Z,12
2022-09-12T21:35:00.112Z,12
2022-09-12T21:40:00.190Z,11.2
2022-09-12T21:45:00.108Z,11.2
2022-09-12T21:50:00.121Z,12.8
2022-09-12T21:55:00.132Z,12.8
2022-09-12T22:00:00.120Z,12
2022-09-12T22:05:00.115Z,12
2022-09-12T22:10:00.111Z,13
2022-09-12T22:15:05.843Z,13
2022-09-12T22:20:00.141Z,11.4
2022-09-12T22:25:00.153Z,11.4
2022-09-12T22:30:00.146Z,11
2022-09-12T22:35:00.124Z,11
2022-09-12T22:40:00.233Z,12.5
2022-09-12T22:45:00.138Z,12.5
2022-09-12T22:50:00.105Z,10.5
2022-09-12T22:55:00.132Z,10.5
2022-09-12T23:00:00.106Z,13.4
2022-09-12T23:05:00.118Z,13.4
2022-09-12T23:10:00.127Z,14.1
2022-09-12T23:15:00.117Z,14.1
2022-09-12T23:20:00.114Z,11.8
2022-09-12T23:25:00.128Z,11.8
2022-09-12T23:30:00.133Z,15.5
2022-09-12T23:35:00.118Z,15.5
2022-09-12T23:40:00.210Z,13.7
2022-09-12T23:45:00.102Z,13.7
2022-09-12T23:50:00.099Z,13.7
2022-09-12T23:55:00.134Z,13.7
